Time;durP1;ratioP1;P1;durP2;ratioP2;P2;SDS_P1;SDS_P2;PMS_P1;PMS_P2;Temp;Humidity;BMP_temperature;BMP_pressure;BME280_temperature;BME280_humidity;BME280_pressure;Samples;Min_cycle;Max_cycle;Signal;HPM_P1;HPM_P2
2023/01/30 00:01:38;;;;;;;;;;;;;;;;;;4919139;29;19919;-83
2023/01/30 00:04:04;;;;;;;;;;;;;;;;;;4919066;29;19923;-83
2023/01/30 00:06:29;;;;;;;;;;;;;;;;;;4918947;29;19941;-83
2023/01/30 00:08:55;;;;;;;;;;;;;;;;;;4901999;29;20019;-82
2023/01/30 00:11:21;;;;;;;;;;;;;;;;;;4918957;29;19930;-83
2023/01/30 00:13:47;;;;;;;;;;;;;;;;;;4919179;29;19927;-83
2023/01/30 00:16:12;;;;;;;;;;;;;;;;;;4918650;29;19993;-83
2023/01/30 00:18:39;;;;;;;;;;;;;;;;;;4918776;29;19923;-82
2023/01/30 00:21:05;;;;;;;;;;;;;;;;;;4901704;29;19930;-83
2023/01/30 00:23:31;;;;;;;;;;;;;;;;;;4918858;29;19974;-83
2023/01/30 00:25:57;;;;;;;;;;;;;;;;;;4918746;29;19930;-83
2023/01/30 00:28:23;;;;;;;;;;;;;;;;;;4918662;29;19915;-83
2023/01/30 00:30:52;;;;;;;;;;;;;;;;;;4918567;29;19959;-87
2023/01/30 00:33:18;;;;;;;;;;;;;;;;;;4918597;29;19951;-86
2023/01/30 00:35:44;;;;;;;;;;;;;;;;;;4918559;29;19919;-84
2023/01/30 00:38:10;;;;;;;;;;;;;;;;;;4917729;29;20018;-84
2023/01/30 00:40:35;;;;;;;;;;;;;;;;;;4918440;29;20018;-84
2023/01/30 00:48:28;;;;;;;;;;;;;;;;;;4918403;29;19997;-85
2023/01/30 00:50:54;;;;;;;;;;;;;;;;;;4918224;29;19923;-83
2023/01/30 00:53:19;;;;;;;;;;;;;;;;;;4918280;29;19919;-86
2023/01/30 00:55:45;;;;;;;;;;;;;;;;;;4901281;29;19926;-86
2023/01/30 00:58:11;;;;;;;;;;;;;;;;;;4918160;29;20348;-86
2023/01/30 01:00:36;;;;;;;;;;;;;;;;;;4900868;29;20013;-86
2023/01/30 01:03:02;;;;;;;;;;;;;;;;;;4901081;29;20006;-85
2023/01/30 01:05:27;;;;;;;;;;;;;;;;;;4917993;29;20323;-82
2023/01/30 01:07:53;;;;;;;;;;;;;;;;;;4917932;29;19915;-88
2023/01/30 01:10:19;;;;;;;;;;;;;;;;;;4901054;29;19926;-86
2023/01/30 01:12:44;;;;;;;;;;;;;;;;;;4918028;29;19927;-87
2023/01/30 01:15:11;;;;;;;;;;;;;;;;;;4900814;29;20021;-85
2023/01/30 01:17:36;;;;;;;;;;;;;;;;;;4917946;29;19926;-85
2023/01/30 01:20:02;;;;;;;;;;;;;;;;;;4917929;29;20372;-86
2023/01/30 01:22:28;;;;;;;;;;;;;;;;;;4917876;29;19919;-85
2023/01/30 01:24:53;;;;;;;;;;;;;;;;;;4917799;29;19932;-82
2023/01/30 01:27:19;;;;;;;;;;;;;;;;;;4900562;29;20261;-82
2023/01/30 01:29:44;;;;;;;;;;;;;;;;;;4917681;29;19975;-82
2023/01/30 01:32:09;;;;;;;;;;;;;;;;;;4917660;29;19926;-82
2023/01/30 01:34:35;;;;;;;;;;;;;;;;;;4900613;29;19919;-84
2023/01/30 01:37:00;;;;;;;;;;;;;;;;;;4920546;29;19992;-82
2023/01/30 01:41:00;;;;;;;;;;;;;;;;;;4927298;29;20398;-82
2023/01/30 01:42:11;;;;;;;;;;;;;;;;;;4927488;29;19919;-82
2023/01/30 01:44:55;;;;;;;;;;;;;;;;;;4910187;29;19924;-83
2023/01/30 01:47:20;;;;;;;;;;;;;;;;;;4921956;29;19989;-87
2023/01/30 01:49:46;;;;;;;;;;;;;;;;;;4917374;29;19923;-88
2023/01/30 01:52:14;;;;;;;;;;;;;;;;;;4917615;29;19930;-84
2023/01/30 01:54:46;;;;;;;;;;;;;;;;;;4917192;29;19926;-86
2023/01/30 01:57:14;;;;;;;;;;;;;;;;;;4917170;29;19974;-84
2023/01/30 01:59:59;;;;;;;;;;;;;;;;;;4900169;29;19966;-88
2023/01/30 02:02:25;;;;;;;;;;;;;;;;;;4916680;29;19929;-87
2023/01/30 02:05:03;;;;;;;;;;;;;;;;;;4917198;29;19915;-84
2023/01/30 02:07:33;;;;;;;;;;;;;;;;;;4917114;29;19970;-87
2023/01/30 02:09:59;;;;;;;;;;;;;;;;;;4917594;29;20284;-86
2023/01/30 02:12:24;;;;;;;;;;;;;;;;;;4917042;29;19923;-86
2023/01/30 02:14:50;;;;;;;;;;;;;;;;;;4916688;29;20416;-85
2023/01/30 02:17:16;;;;;;;;;;;;;;;;;;4917054;29;19919;-88
2023/01/30 02:20:00;;;;;;;;;;;;;;;;;;4916983;29;19919;-88
2023/01/30 02:22:28;;;;;;;;;;;;;;;;;;4916865;29;19954;-87
2023/01/30 02:25:16;;;;;;;;;;;;;;;;;;4916910;29;19944;-86
2023/01/30 02:27:48;;;;;;;;;;;;;;;;;;4892039;29;19923;-89
2023/01/30 02:30:32;;;;;;;;;;;;;;;;;;4916872;29;20013;-87
2023/01/30 02:33:10;;;;;;;;;;;;;;;;;;4916879;29;19919;-85
2023/01/30 02:35:54;;;;;;;;;;;;;;;;;;4916841;29;20014;-86
2023/01/30 02:38:28;;;;;;;;;;;;;;;;;;4916890;29;20387;-86
2023/01/30 02:41:12;;;;;;;;;;;;;;;;;;4899800;29;20314;-86
2023/01/30 02:43:58;;;;;;;;;;;;;;;;;;4916747;29;20327;-86
2023/01/30 02:46:25;;;;;;;;;;;;;;;;;;4916223;29;19919;-88
2023/01/30 02:48:57;;;;;;;;;;;;;;;;;;4899834;29;19919;-87
2023/01/30 02:51:26;;;;;;;;;;;;;;;;;;4899732;29;19926;-86
2023/01/30 02:53:52;;;;;;;;;;;;;;;;;;4916719;29;19925;-88
2023/01/30 02:56:18;;;;;;;;;;;;;;;;;;4899581;29;19952;-87
2023/01/30 02:58:46;;;;;;;;;;;;;;;;;;4916577;29;19919;-86
2023/01/30 03:01:30;;;;;;;;;;;;;;;;;;4901047;29;19926;-87
2023/01/30 03:04:17;;;;;;;;;;;;;;;;;;4920151;29;19944;-85
2023/01/30 03:06:45;;;;;;;;;;;;;;;;;;4903218;29;20034;-84
2023/01/30 03:09:14;;;;;;;;;;;;;;;;;;4920086;29;19920;-90
2023/01/30 03:11:56;;;;;;;;;;;;;;;;;;4920130;29;19919;-87
2023/01/30 03:14:25;;;;;;;;;;;;;;;;;;4919797;29;19930;-89
2023/01/30 03:16:51;;;;;;;;;;;;;;;;;;4920036;29;19920;-89
2023/01/30 03:19:18;;;;;;;;;;;;;;;;;;4919800;29;19998;-85
2023/01/30 03:21:44;;;;;;;;;;;;;;;;;;4919927;29;19923;-83
2023/01/30 03:24:10;;;;;;;;;;;;;;;;;;4919823;29;20324;-88
2023/01/30 03:26:39;;;;;;;;;;;;;;;;;;4903089;29;20321;-85
2023/01/30 03:29:04;;;;;;;;;;;;;;;;;;4902842;29;19934;-91
2023/01/30 03:31:30;;;;;;;;;;;;;;;;;;4902658;29;20336;-85
2023/01/30 03:33:55;;;;;;;;;;;;;;;;;;4919616;29;20014;-84
2023/01/30 03:36:21;;;;;;;;;;;;;;;;;;4919559;29;19923;-83
2023/01/30 03:38:46;;;;;;;;;;;;;;;;;;4919509;29;19919;-82
2023/01/30 03:41:11;;;;;;;;;;;;;;;;;;4919518;29;19975;-85
2023/01/30 03:43:37;;;;;;;;;;;;;;;;;;4919437;29;19950;-87
2023/01/30 03:46:02;;;;;;;;;;;;;;;;;;4902793;29;19975;-86
2023/01/30 03:48:28;;;;;;;;;;;;;;;;;;4919400;29;19919;-87
2023/01/30 03:50:53;;;;;;;;;;;;;;;;;;4919305;29;19970;-82
2023/01/30 03:53:18;;;;;;;;;;;;;;;;;;4919307;29;20014;-84
2023/01/30 03:55:44;;;;;;;;;;;;;;;;;;4919182;29;19974;-88
2023/01/30 03:58:09;;;;;;;;;;;;;;;;;;4902272;29;19920;-83
2023/01/30 04:00:35;;;;;;;;;;;;;;;;;;4902215;29;19923;-84
2023/01/30 04:03:00;;;;;;;;;;;;;;;;;;4919235;29;20287;-85
2023/01/30 04:05:26;;;;;;;;;;;;;;;;;;4919089;29;20286;-86
2023/01/30 04:07:54;;;;;;;;;;;;;;;;;;4919124;29;19926;-84
2023/01/30 04:10:20;;;;;;;;;;;;;;;;;;4901977;29;19919;-89
2023/01/30 04:12:45;;;;;;;;;;;;;;;;;;4917735;29;19923;-84
2023/01/30 04:15:11;;;;;;;;;;;;;;;;;;4918709;29;19978;-86
2023/01/30 04:17:36;;;;;;;;;;;;;;;;;;4918953;29;19973;-84
2023/01/30 04:20:02;;;;;;;;;;;;;;;;;;4918850;29;20387;-86
2023/01/30 04:22:27;;;;;;;;;;;;;;;;;;4918861;29;19963;-89
2023/01/30 04:24:53;;;;;;;;;;;;;;;;;;4918768;29;19919;-87
2023/01/30 04:27:18;;;;;;;;;;;;;;;;;;4918786;29;20368;-90
2023/01/30 04:29:43;;;;;;;;;;;;;;;;;;4918851;29;19979;-86
2023/01/30 04:32:09;;;;;;;;;;;;;;;;;;4918799;29;19919;-84
2023/01/30 04:34:34;;;;;;;;;;;;;;;;;;4901590;29;19919;-86
2023/01/30 04:37:00;;;;;;;;;;;;;;;;;;4918463;29;20376;-87
2023/01/30 04:39:25;;;;;;;;;;;;;;;;;;4918551;29;19923;-87
2023/01/30 04:41:50;;;;;;;;;;;;;;;;;;4918502;29;19923;-85
2023/01/30 04:44:16;;;;;;;;;;;;;;;;;;4918537;29;20396;-89
2023/01/30 04:46:41;;;;;;;;;;;;;;;;;;4918351;29;19915;-86
2023/01/30 04:49:08;;;;;;;;;;;;;;;;;;4918255;29;19982;-84
2023/01/30 04:51:33;;;;;;;;;;;;;;;;;;4901515;29;19923;-88
2023/01/30 04:53:59;;;;;;;;;;;;;;;;;;4918292;29;19923;-86
2023/01/30 04:56:24;;;;;;;;;;;;;;;;;;4918203;29;20419;-89
2023/01/30 04:58:50;;;;;;;;;;;;;;;;;;4918163;29;19920;-88
2023/01/30 05:01:20;;;;;;;;;;;;;;;;;;4918209;29;19919;-86
2023/01/30 05:03:48;;;;;;;;;;;;;;;;;;4918118;29;20387;-84
2023/01/30 05:06:13;;;;;;;;;;;;;;;;;;4917990;29;19919;-85
2023/01/30 05:08:38;;;;;;;;;;;;;;;;;;4918101;29;19923;-90
2023/01/30 05:11:04;;;;;;;;;;;;;;;;;;4900978;29;19923;-88
2023/01/30 05:13:29;;;;;;;;;;;;;;;;;;4900958;29;19919;-90
2023/01/30 05:15:55;;;;;;;;;;;;;;;;;;4900493;29;19924;-88
2023/01/30 05:18:20;;;;;;;;;;;;;;;;;;4917943;29;19950;-88
2023/01/30 05:20:45;;;;;;;;;;;;;;;;;;4917953;29;19947;-82
2023/01/30 05:23:11;;;;;;;;;;;;;;;;;;4917568;29;19930;-90
2023/01/30 05:25:36;;;;;;;;;;;;;;;;;;4917769;29;19933;-86
2023/01/30 05:28:02;;;;;;;;;;;;;;;;;;4918120;29;19929;-86
2023/01/30 05:30:27;;;;;;;;;;;;;;;;;;4900801;29;20356;-84
2023/01/30 05:32:53;;;;;;;;;;;;;;;;;;4917718;29;19919;-82
2023/01/30 05:35:18;;;;;;;;;;;;;;;;;;4917465;29;19975;-84
2023/01/30 05:37:43;;;;;;;;;;;;;;;;;;4917506;29;20394;-83
2023/01/30 05:40:09;;;;;;;;;;;;;;;;;;4917441;29;19958;-82
2023/01/30 05:42:34;;;;;;;;;;;;;;;;;;4917335;29;19920;-82
2023/01/30 05:45:00;;;;;;;;;;;;;;;;;;4917301;29;19920;-82
2023/01/30 05:47:25;;;;;;;;;;;;;;;;;;4917392;29;20443;-82
2023/01/30 05:49:51;;;;;;;;;;;;;;;;;;4917258;29;19919;-83
2023/01/30 05:52:16;;;;;;;;;;;;;;;;;;4917342;29;19983;-84
2023/01/30 05:54:42;;;;;;;;;;;;;;;;;;4917557;29;19926;-82
2023/01/30 05:57:07;;;;;;;;;;;;;;;;;;4900488;29;20364;-82
2023/01/30 05:59:32;;;;;;;;;;;;;;;;;;4900357;29;19920;-83
2023/01/30 06:01:58;;;;;;;;;;;;;;;;;;4917175;29;19919;-82
2023/01/30 06:04:23;;;;;;;;;;;;;;;;;;4917262;29;20559;-83
2023/01/30 06:06:49;;;;;;;;;;;;;;;;;;4919710;29;19983;-83
2023/01/30 06:09:15;;;;;;;;;;;;;;;;;;4911775;29;20431;-83
2023/01/30 06:11:40;;;;;;;;;;;;;;;;;;4927558;29;19974;-83
2023/01/30 06:14:05;;;;;;;;;;;;;;;;;;4928546;29;19915;-84
2023/01/30 06:16:31;;;;;;;;;;;;;;;;;;4927101;29;20418;-84
2023/01/30 06:18:56;;;;;;;;;;;;;;;;;;4901320;29;20287;-88
2023/01/30 06:21:22;;;;;;;;;;;;;;;;;;4917488;29;19919;-88
2023/01/30 06:23:47;;;;;;;;;;;;;;;;;;4917460;29;19919;-89
2023/01/30 06:26:12;;;;;;;;;;;;;;;;;;4900276;29;20435;-87
2023/01/30 06:28:38;;;;;;;;;;;;;;;;;;4919290;29;19926;-85
2023/01/30 06:31:07;;;;;;;;;;;;;;;;;;4904315;29;19933;-86
2023/01/30 06:33:32;;;;;;;;;;;;;;;;;;4890379;29;19924;-87
2023/01/30 06:35:58;;;;;;;;;;;;;;;;;;4899047;29;19926;-87
2023/01/30 06:38:23;;;;;;;;;;;;;;;;;;4884956;29;20014;-86
2023/01/30 06:40:49;;;;;;;;;;;;;;;;;;4901765;29;20002;-87
2023/01/30 06:43:14;;;;;;;;;;;;;;;;;;4901780;29;19923;-88
2023/01/30 06:45:40;;;;;;;;;;;;;;;;;;4901668;29;19919;-85
2023/01/30 06:48:05;;;;;;;;;;;;;;;;;;4901632;29;19919;-87
2023/01/30 06:50:31;;;;;;;;;;;;;;;;;;4909611;29;20387;-85
2023/01/30 06:52:56;;;;;;;;;;;;;;;;;;4909841;29;19923;-87
2023/01/30 06:55:24;;;;;;;;;;;;;;;;;;4912095;29;20335;-83
2023/01/30 06:57:49;;;;;;;;;;;;;;;;;;4901582;29;20047;-85
2023/01/30 07:00:16;;;;;;;;;;;;;;;;;;4909283;29;20014;-84
2023/01/30 07:02:41;;;;;;;;;;;;;;;;;;4920350;29;19919;-84
2023/01/30 07:05:07;;;;;;;;;;;;;;;;;;4903085;29;19919;-82
2023/01/30 07:07:33;;;;;;;;;;;;;;;;;;4920226;29;19923;-85
2023/01/30 07:09:59;;;;;;;;;;;;;;;;;;4920110;29;20295;-84
2023/01/30 07:12:25;;;;;;;;;;;;;;;;;;4903043;29;19927;-84
2023/01/30 07:14:51;;;;;;;;;;;;;;;;;;4919728;29;19923;-83
2023/01/30 07:17:16;;;;;;;;;;;;;;;;;;4920023;29;19920;-87
2023/01/30 07:19:42;;;;;;;;;;;;;;;;;;4920073;29;20013;-85
2023/01/30 07:22:07;;;;;;;;;;;;;;;;;;4919931;29;19926;-87
2023/01/30 07:24:35;;;;;;;;;;;;;;;;;;4902708;29;20465;-87
2023/01/30 07:27:01;;;;;;;;;;;;;;;;;;4919964;29;20296;-87
2023/01/30 07:29:26;;;;;;;;;;;;;;;;;;4919840;29;20056;-85
2023/01/30 07:31:51;;;;;;;;;;;;;;;;;;4919704;29;20000;-85
2023/01/30 07:34:17;;;;;;;;;;;;;;;;;;4918806;29;20033;-88
2023/01/30 07:36:42;;;;;;;;;;;;;;;;;;4918316;29;19919;-86
2023/01/30 07:39:08;;;;;;;;;;;;;;;;;;4918976;29;19983;-89
2023/01/30 07:41:34;;;;;;;;;;;;;;;;;;4918932;29;19919;-87
2023/01/30 07:43:59;;;;;;;;;;;;;;;;;;4918910;29;19918;-87
2023/01/30 07:46:25;;;;;;;;;;;;;;;;;;4901338;29;19926;-87
2023/01/30 07:48:50;;;;;;;;;;;;;;;;;;4901561;29;19919;-86
2023/01/30 07:51:15;;;;;;;;;;;;;;;;;;4902480;29;20013;-87
2023/01/30 07:53:41;;;;;;;;;;;;;;;;;;4919293;29;19923;-86
2023/01/30 07:56:07;;;;;;;;;;;;;;;;;;4902368;29;19927;-83
2023/01/30 07:58:32;;;;;;;;;;;;;;;;;;4919257;29;20364;-86
2023/01/30 08:00:58;;;;;;;;;;;;;;;;;;4902349;29;19927;-84
2023/01/30 08:03:23;;;;;;;;;;;;;;;;;;4902305;29;20387;-85
2023/01/30 08:05:48;;;;;;;;;;;;;;;;;;4919147;29;20279;-87
2023/01/30 08:08:14;;;;;;;;;;;;;;;;;;4902040;29;19976;-87
2023/01/30 08:10:39;;;;;;;;;;;;;;;;;;4902091;29;20287;-85
2023/01/30 08:13:05;;;;;;;;;;;;;;;;;;4919043;29;19922;-87
2023/01/30 08:15:32;;;;;;;;;;;;;;;;;;4918734;29;19923;-85
2023/01/30 08:17:58;;;;;;;;;;;;;;;;;;4918947;29;19923;-84
2023/01/30 08:20:24;;;;;;;;;;;;;;;;;;4902036;29;20331;-89
2023/01/30 08:22:50;;;;;;;;;;;;;;;;;;4918879;29;19966;-88
2023/01/30 08:25:15;;;;;;;;;;;;;;;;;;4901887;29;20374;-86
2023/01/30 08:27:40;;;;;;;;;;;;;;;;;;4918783;29;19919;-85
2023/01/30 08:30:06;;;;;;;;;;;;;;;;;;4918400;29;19929;-84
2023/01/30 08:32:32;;;;;;;;;;;;;;;;;;4917571;29;20327;-88
2023/01/30 08:34:57;;;;;;;;;;;;;;;;;;4918615;29;20345;-86
2023/01/30 08:37:22;;;;;;;;;;;;;;;;;;4901499;29;20379;-85
2023/01/30 08:39:48;;;;;;;;;;;;;;;;;;4918584;29;20060;-88
2023/01/30 08:42:13;;;;;;;;;;;;;;;;;;4918544;29;19920;-87
2023/01/30 08:44:39;;;;;;;;;;;;;;;;;;4901305;29;19997;-87
2023/01/30 08:47:04;;;;;;;;;;;;;;;;;;4901498;29;19949;-88
2023/01/30 08:49:29;;;;;;;;;;;;;;;;;;4918379;29;19923;-84
2023/01/30 08:51:55;;;;;;;;;;;;;;;;;;4901371;29;19923;-84
2023/01/30 08:54:20;;;;;;;;;;;;;;;;;;4901155;29;20022;-84
2023/01/30 08:56:46;;;;;;;;;;;;;;;;;;4901306;29;20034;-84
2023/01/30 08:59:11;;;;;;;;;;;;;;;;;;4917648;29;20015;-84
2023/01/30 09:01:37;;;;;;;;;;;;;;;;;;4918180;29;19926;-84
2023/01/30 09:04:02;;;;;;;;;;;;;;;;;;4918059;29;19919;-84
2023/01/30 09:06:28;;;;;;;;;;;;;;;;;;4901156;29;19919;-84
2023/01/30 09:08:53;;;;;;;;;;;;;;;;;;4917958;29;20363;-83
2023/01/30 09:11:19;;;;;;;;;;;;;;;;;;4900954;29;19919;-87
2023/01/30 09:13:44;;;;;;;;;;;;;;;;;;4900920;29;19923;-84
2023/01/30 09:16:10;;;;;;;;;;;;;;;;;;4883825;29;19923;-84
2023/01/30 09:18:39;;;;;;;;;;;;;;;;;;4899033;29;20010;-86
2023/01/30 09:21:04;;;;;;;;;;;;;;;;;;4898967;29;19924;-85
2023/01/30 09:23:30;;;;;;;;;;;;;;;;;;4898945;29;20349;-85
2023/01/30 09:25:55;;;;;;;;;;;;;;;;;;4898787;29;19919;-84
2023/01/30 09:28:21;;;;;;;;;;;;;;;;;;4899080;29;19923;-84
2023/01/30 09:30:46;;;;;;;;;;;;;;;;;;4898979;29;19920;-84
2023/01/30 09:33:15;;;;;;;;;;;;;;;;;;4882419;29;20451;-84
2023/01/30 09:35:40;;;;;;;;;;;;;;;;;;4898902;29;19919;-83
2023/01/30 09:38:06;;;;;;;;;;;;;;;;;;4898853;29;19926;-83
2023/01/30 09:40:32;;;;;;;;;;;;;;;;;;4900357;29;19923;-83
2023/01/30 09:43:20;;;;;;;;;;;;;;;;;;4899795;29;19919;-84
2023/01/30 09:45:45;;;;;;;;;;;;;;;;;;4891329;29;19920;-84
2023/01/30 09:48:13;;;;;;;;;;;;;;;;;;4898899;29;19925;-85
2023/01/30 09:50:58;;;;;;;;;;;;;;;;;;4898534;29;19927;-83
2023/01/30 09:53:28;;;;;;;;;;;;;;;;;;4899660;29;19927;-84
2023/01/30 09:55:56;;;;;;;;;;;;;;;;;;4898778;29;19974;-84
2023/01/30 09:58:22;;;;;;;;;;;;;;;;;;4898696;29;19966;-85
2023/01/30 10:00:50;;;;;;;;;;;;;;;;;;4898353;29;19915;-85
2023/01/30 10:03:37;;;;;;;;;;;;;;;;;;4881542;29;19963;-85
2023/01/30 10:06:13;;;;;;;;;;;;;;;;;;4893295;29;20288;-84
2023/01/30 10:08:38;;;;;;;;;;;;;;;;;;4881337;29;19920;-84
2023/01/30 10:11:22;;;;;;;;;;;;;;;;;;4881342;29;19930;-84
2023/01/30 10:14:03;;;;;;;;;;;;;;;;;;4875130;29;19959;-83
2023/01/30 10:16:28;;;;;;;;;;;;;;;;;;4881350;29;19946;-83
2023/01/30 10:19:03;;;;;;;;;;;;;;;;;;4881386;29;20021;-83
2023/01/30 10:21:35;;;;;;;;;;;;;;;;;;4881399;29;19923;-83
2023/01/30 10:24:01;;;;;;;;;;;;;;;;;;4898391;29;19920;-83
2023/01/30 10:26:27;;;;;;;;;;;;;;;;;;4898524;29;20303;-83
2023/01/30 10:29:06;;;;;;;;;;;;;;;;;;4898371;29;19919;-83
2023/01/30 10:31:39;;;;;;;;;;;;;;;;;;4881682;29;19926;-84
2023/01/30 10:34:08;;;;;;;;;;;;;;;;;;4898442;29;19930;-83
2023/01/30 10:36:34;;;;;;;;;;;;;;;;;;4882447;29;20392;-83
2023/01/30 10:39:00;;;;;;;;;;;;;;;;;;4881346;29;19926;-84
2023/01/30 10:41:29;;;;;;;;;;;;;;;;;;4898283;29;20448;-84
2023/01/30 10:44:12;;;;;;;;;;;;;;;;;;4898155;29;20415;-83
2023/01/30 10:46:56;;;;;;;;;;;;;;;;;;4906400;29;19955;-82
2023/01/30 10:49:30;;;;;;;;;;;;;;;;;;4907682;29;19920;-82
2023/01/30 10:52:08;;;;;;;;;;;;;;;;;;4904150;29;19927;-89
2023/01/30 10:54:43;;;;;;;;;;;;;;;;;;4898697;29;19958;-86
2023/01/30 10:57:26;;;;;;;;;;;;;;;;;;4899142;29;19943;-86
2023/01/30 10:59:58;;;;;;;;;;;;;;;;;;4881628;29;19975;-88
2023/01/30 11:02:26;;;;;;;;;;;;;;;;;;4898267;29;19920;-88
2023/01/30 11:05:18;;;;;;;;;;;;;;;;;;4881159;29;19963;-88
2023/01/30 11:07:49;;;;;;;;;;;;;;;;;;4901743;29;19923;-84
2023/01/30 11:10:22;;;;;;;;;;;;;;;;;;4907194;29;19968;-86
2023/01/30 11:12:51;;;;;;;;;;;;;;;;;;4896729;29;19930;-85
2023/01/30 11:15:20;;;;;;;;;;;;;;;;;;4888723;29;19946;-84
2023/01/30 11:17:45;;;;;;;;;;;;;;;;;;4904021;29;20007;-89
2023/01/30 11:20:18;;;;;;;;;;;;;;;;;;4904008;29;19958;-88
2023/01/30 11:22:44;;;;;;;;;;;;;;;;;;4889903;29;19923;-87
2023/01/30 11:25:13;;;;;;;;;;;;;;;;;;4891112;29;19946;-86
2023/01/30 11:27:41;;;;;;;;;;;;;;;;;;4891043;29;20296;-87
2023/01/30 11:30:32;;;;;;;;;;;;;;;;;;4895259;29;20443;-88
2023/01/30 11:33:11;;;;;;;;;;;;;;;;;;4910618;29;20423;-88
2023/01/30 11:35:41;;;;;;;;;;;;;;;;;;4895254;29;20072;-89
2023/01/30 11:38:20;;;;;;;;;;;;;;;;;;4900834;29;20067;-88
2023/01/30 11:40:45;;;;;;;;;;;;;;;;;;4883719;29;19927;-89
2023/01/30 11:43:12;;;;;;;;;;;;;;;;;;4900770;29;19920;-88
2023/01/30 11:45:43;;;;;;;;;;;;;;;;;;4883817;29;20003;-89
2023/01/30 11:48:18;;;;;;;;;;;;;;;;;;4900663;29;20364;-88
2023/01/30 11:50:45;;;;;;;;;;;;;;;;;;4900024;29;19915;-88
2023/01/30 11:53:16;;;;;;;;;;;;;;;;;;4900584;29;19942;-87
2023/01/30 11:55:41;;;;;;;;;;;;;;;;;;4883225;29;20331;-88
2023/01/30 11:58:08;;;;;;;;;;;;;;;;;;4906531;29;19966;-89
2023/01/30 12:00:41;;;;;;;;;;;;;;;;;;4900426;29;19980;-88
2023/01/30 12:03:09;;;;;;;;;;;;;;;;;;4884074;29;20018;-87
2023/01/30 12:05:41;;;;;;;;;;;;;;;;;;4900536;29;19966;-87
2023/01/30 12:08:19;;;;;;;;;;;;;;;;;;4900438;29;19972;-85
2023/01/30 12:10:46;;;;;;;;;;;;;;;;;;4883518;29;19959;-85
2023/01/30 12:13:21;;;;;;;;;;;;;;;;;;4883353;29;19924;-86
2023/01/30 12:15:49;;;;;;;;;;;;;;;;;;4914020;29;19927;-86
2023/01/30 12:18:21;;;;;;;;;;;;;;;;;;4902260;29;20412;-84
2023/01/30 12:21:22;;;;;;;;;;;;;;;;;;4902972;29;19926;-87
2023/01/30 12:24:01;;;;;;;;;;;;;;;;;;4845177;29;19981;-85
2023/01/30 12:26:33;;;;;;;;;;;;;;;;;;4860774;29;19920;-86
2023/01/30 12:29:19;;;;;;;;;;;;;;;;;;4845049;29;19936;-86
2023/01/30 12:32:02;;;;;;;;;;;;;;;;;;4860550;29;19931;-87
2023/01/30 12:34:27;;;;;;;;;;;;;;;;;;4844034;29;19967;-85
2023/01/30 12:37:02;;;;;;;;;;;;;;;;;;4844864;29;20427;-87
2023/01/30 12:39:33;;;;;;;;;;;;;;;;;;4860472;29;19922;-90
2023/01/30 12:41:59;;;;;;;;;;;;;;;;;;4860405;29;19992;-86
2023/01/30 12:44:24;;;;;;;;;;;;;;;;;;4860411;29;19920;-83
2023/01/30 12:47:08;;;;;;;;;;;;;;;;;;4860304;29;19943;-83
2023/01/30 12:49:41;;;;;;;;;;;;;;;;;;4844760;29;19920;-84
2023/01/30 12:52:06;;;;;;;;;;;;;;;;;;4860179;29;20028;-83
2023/01/30 12:54:44;;;;;;;;;;;;;;;;;;4844482;29;20328;-85
2023/01/30 12:57:28;;;;;;;;;;;;;;;;;;4858931;29;19925;-83
2023/01/30 13:00:05;;;;;;;;;;;;;;;;;;4918170;29;20368;-85
2023/01/30 13:02:39;;;;;;;;;;;;;;;;;;4901188;29;19919;-84
2023/01/30 13:05:20;;;;;;;;;;;;;;;;;;4918060;29;19918;-84
2023/01/30 13:07:48;;;;;;;;;;;;;;;;;;4901166;29;19923;-85
2023/01/30 13:10:20;;;;;;;;;;;;;;;;;;4901041;29;19919;-83
2023/01/30 13:12:45;;;;;;;;;;;;;;;;;;4918007;29;19929;-84
2023/01/30 13:15:24;;;;;;;;;;;;;;;;;;4917740;29;20010;-83
2023/01/30 13:17:58;;;;;;;;;;;;;;;;;;4917977;29;19923;-86
2023/01/30 13:20:24;;;;;;;;;;;;;;;;;;4917776;29;19923;-84
2023/01/30 13:22:49;;;;;;;;;;;;;;;;;;4900759;29;20272;-84
2023/01/30 13:25:22;;;;;;;;;;;;;;;;;;4917745;29;19954;-83
2023/01/30 13:27:52;;;;;;;;;;;;;;;;;;4900821;29;19974;-83
2023/01/30 13:30:18;;;;;;;;;;;;;;;;;;4900551;29;19970;-85
2023/01/30 13:32:48;;;;;;;;;;;;;;;;;;4918176;29;19923;-84
2023/01/30 13:35:21;;;;;;;;;;;;;;;;;;4917586;29;19920;-83
2023/01/30 13:37:48;;;;;;;;;;;;;;;;;;4917610;29;19919;-83
2023/01/30 13:40:13;;;;;;;;;;;;;;;;;;4917615;29;19942;-83
2023/01/30 13:42:38;;;;;;;;;;;;;;;;;;4917486;29;20371;-86
2023/01/30 13:45:05;;;;;;;;;;;;;;;;;;4917155;29;20383;-83
2023/01/30 13:47:42;;;;;;;;;;;;;;;;;;4900464;29;20290;-83
2023/01/30 13:50:20;;;;;;;;;;;;;;;;;;4917288;29;19919;-83
2023/01/30 13:52:54;;;;;;;;;;;;;;;;;;4916662;29;19930;-84
2023/01/30 13:55:38;;;;;;;;;;;;;;;;;;4915648;29;19927;-83
2023/01/30 13:58:16;;;;;;;;;;;;;;;;;;4924821;29;19923;-84
2023/01/30 14:00:51;;;;;;;;;;;;;;;;;;4908913;29;19927;-85
2023/01/30 14:03:24;;;;;;;;;;;;;;;;;;4922742;29;19930;-85
2023/01/30 14:06:01;;;;;;;;;;;;;;;;;;4906966;29;19923;-84
2023/01/30 14:08:28;;;;;;;;;;;;;;;;;;4907148;29;19927;-83
2023/01/30 14:10:54;;;;;;;;;;;;;;;;;;4935658;29;19918;-83
2023/01/30 14:13:21;;;;;;;;;;;;;;;;;;4935931;29;19919;-83
2023/01/30 14:15:54;;;;;;;;;;;;;;;;;;4935366;29;20005;-86
2023/01/30 14:18:21;;;;;;;;;;;;;;;;;;4920651;29;19946;-83
2023/01/30 14:20:48;;;;;;;;;;;;;;;;;;4899500;29;19945;-82
2023/01/30 14:23:30;;;;;;;;;;;;;;;;;;4933673;29;19946;-85
2023/01/30 14:25:56;;;;;;;;;;;;;;;;;;4934977;29;19934;-84
2023/01/30 14:28:24;;;;;;;;;;;;;;;;;;4935474;29;20295;-84
2023/01/30 14:30:51;;;;;;;;;;;;;;;;;;4918794;29;20427;-86
2023/01/30 14:33:34;;;;;;;;;;;;;;;;;;4934250;29;20017;-84
2023/01/30 14:35:59;;;;;;;;;;;;;;;;;;4917325;29;19922;-84
2023/01/30 14:38:26;;;;;;;;;;;;;;;;;;4934540;29;19930;-86
2023/01/30 14:40:57;;;;;;;;;;;;;;;;;;4934491;29;19926;-85
2023/01/30 14:43:46;;;;;;;;;;;;;;;;;;4934715;29;20554;-87
2023/01/30 14:46:15;;;;;;;;;;;;;;;;;;4935102;29;20018;-87
2023/01/30 14:48:40;;;;;;;;;;;;;;;;;;4918993;29;19922;-85
2023/01/30 14:51:10;;;;;;;;;;;;;;;;;;4919019;29;20386;-84
2023/01/30 14:53:45;;;;;;;;;;;;;;;;;;4935751;29;19927;-83
2023/01/30 14:56:11;;;;;;;;;;;;;;;;;;4918658;29;19919;-83
2023/01/30 14:58:36;;;;;;;;;;;;;;;;;;4939203;29;20343;-85
2023/01/30 15:01:02;;;;;;;;;;;;;;;;;;4922404;29;19919;-85
2023/01/30 15:03:28;;;;;;;;;;;;;;;;;;4922263;29;19974;-84
2023/01/30 15:05:58;;;;;;;;;;;;;;;;;;4939469;29;19954;-84
2023/01/30 15:08:25;;;;;;;;;;;;;;;;;;4939661;29;19956;-85
2023/01/30 15:10:53;;;;;;;;;;;;;;;;;;4939663;29;19925;-84
2023/01/30 15:13:21;;;;;;;;;;;;;;;;;;4922470;29;19919;-86
2023/01/30 15:15:56;;;;;;;;;;;;;;;;;;4922009;29;19926;-84
2023/01/30 15:18:43;;;;;;;;;;;;;;;;;;4922151;29;19929;-84
2023/01/30 15:21:24;;;;;;;;;;;;;;;;;;4939293;29;19926;-84
2023/01/30 15:24:08;;;;;;;;;;;;;;;;;;4922492;29;20383;-83
2023/01/30 15:26:53;;;;;;;;;;;;;;;;;;4934639;29;19919;-84
2023/01/30 15:29:25;;;;;;;;;;;;;;;;;;4930206;29;19909;-85
2023/01/30 15:31:54;;;;;;;;;;;;;;;;;;4953244;29;19918;-85
2023/01/30 15:34:20;;;;;;;;;;;;;;;;;;4953666;29;19966;-84
2023/01/30 15:36:45;;;;;;;;;;;;;;;;;;4951707;29;19926;-88
2023/01/30 15:39:21;;;;;;;;;;;;;;;;;;4923625;29;19962;-89
2023/01/30 15:41:47;;;;;;;;;;;;;;;;;;4940112;29;19919;-89
2023/01/30 15:44:12;;;;;;;;;;;;;;;;;;4939246;29;20114;-89
2023/01/30 15:46:41;;;;;;;;;;;;;;;;;;4939516;29;20055;-88
2023/01/30 15:49:06;;;;;;;;;;;;;;;;;;4939678;29;19996;-86
2023/01/30 15:51:33;;;;;;;;;;;;;;;;;;4922091;29;19915;-89
2023/01/30 15:54:00;;;;;;;;;;;;;;;;;;4921574;29;19923;-88
2023/01/30 15:56:28;;;;;;;;;;;;;;;;;;4921455;29;19970;-86
2023/01/30 15:58:55;;;;;;;;;;;;;;;;;;4938830;29;19926;-89
2023/01/30 16:01:21;;;;;;;;;;;;;;;;;;4938674;29;19919;-89
2023/01/30 16:03:48;;;;;;;;;;;;;;;;;;4921521;29;19925;-90
2023/01/30 16:06:29;;;;;;;;;;;;;;;;;;4922425;29;19919;-85
2023/01/30 16:09:03;;;;;;;;;;;;;;;;;;4916518;29;19994;-85
2023/01/30 16:11:39;;;;;;;;;;;;;;;;;;4926222;29;19923;-88
2023/01/30 16:14:08;;;;;;;;;;;;;;;;;;4909032;29;19951;-88
2023/01/30 16:16:34;;;;;;;;;;;;;;;;;;4911654;29;19955;-89
2023/01/30 16:19:01;;;;;;;;;;;;;;;;;;4913893;29;20391;-91
2023/01/30 16:21:30;;;;;;;;;;;;;;;;;;4931050;29;19972;-88
2023/01/30 16:24:01;;;;;;;;;;;;;;;;;;4902387;29;20001;-84
2023/01/30 16:26:27;;;;;;;;;;;;;;;;;;4901929;29;19919;-84
2023/01/30 16:28:58;;;;;;;;;;;;;;;;;;4901964;29;19919;-85
2023/01/30 16:31:30;;;;;;;;;;;;;;;;;;4903121;29;20029;-91
2023/01/30 16:33:55;;;;;;;;;;;;;;;;;;4902377;29;20021;-85
2023/01/30 16:36:21;;;;;;;;;;;;;;;;;;4902213;29;20030;-89
2023/01/30 16:38:47;;;;;;;;;;;;;;;;;;4919382;29;19954;-85
2023/01/30 16:41:30;;;;;;;;;;;;;;;;;;4919651;29;19915;-86
2023/01/30 16:44:14;;;;;;;;;;;;;;;;;;4902183;29;19923;-90
2023/01/30 16:46:55;;;;;;;;;;;;;;;;;;4919049;29;20424;-88
2023/01/30 16:49:26;;;;;;;;;;;;;;;;;;4901703;29;19926;-89
2023/01/30 16:52:02;;;;;;;;;;;;;;;;;;4905509;29;19923;-85
2023/01/30 16:54:28;;;;;;;;;;;;;;;;;;4938127;29;19966;-83
2023/01/30 16:56:55;;;;;;;;;;;;;;;;;;4920574;29;19969;-83
2023/01/30 16:59:27;;;;;;;;;;;;;;;;;;4920921;29;19925;-84
2023/01/30 17:01:54;;;;;;;;;;;;;;;;;;4937013;29;19954;-81
2023/01/30 17:04:22;;;;;;;;;;;;;;;;;;4937841;29;19919;-86